sensor_id;sensor_type;location;lat;lon;timestamp;P1;durP1;ratioP1;P2;durP2;ratioP2
15177;SDS011;7689;53.612;-2.416;2022-09-03T00:13:27;12.15;;;9.80;;
15177;SDS011;7689;53.612;-2.416;2022-09-03T00:15:57;12.25;;;9.57;;
15177;SDS011;7689;53.612;-2.416;2022-09-03T00:18:28;10.15;;;8.93;;
15177;SDS011;7689;53.612;-2.416;2022-09-03T00:21:06;12.90;;;9.25;;
15177;SDS011;7689;53.612;-2.416;2022-09-03T00:23:39;10.05;;;8.93;;
15177;SDS011;7689;53.612;-2.416;2022-09-03T00:28:44;13.63;;;9.05;;
15177;SDS011;7689;53.612;-2.416;2022-09-03T00:34:04;9.75;;;8.80;;
15177;SDS011;7689;53.612;-2.416;2022-09-03T00:36:44;12.15;;;8.90;;
15177;SDS011;7689;53.612;-2.416;2022-09-03T00:39:14;14.95;;;9.70;;
15177;SDS011;7689;53.612;-2.416;2022-09-03T00:47:07;12.60;;;9.20;;
15177;SDS011;7689;53.612;-2.416;2022-09-03T01:00:35;10.85;;;9.70;;
15177;SDS011;7689;53.612;-2.416;2022-09-03T01:11:32;12.93;;;11.60;;
15177;SDS011;7689;53.612;-2.416;2022-09-03T01:30:17;14.50;;;12.25;;
15177;SDS011;7689;53.612;-2.416;2022-09-03T01:35:37;14.73;;;13.23;;
15177;SDS011;7689;53.612;-2.416;2022-09-03T01:38:15;16.40;;;14.07;;
15177;SDS011;7689;53.612;-2.416;2022-09-03T01:41:05;15.20;;;13.60;;
15177;SDS011;7689;53.612;-2.416;2022-09-03T01:46:40;16.80;;;15.05;;
15177;SDS011;7689;53.612;-2.416;2022-09-03T01:51:49;22.33;;;17.67;;
15177;SDS011;7689;53.612;-2.416;2022-09-03T01:54:42;18.90;;;16.90;;
15177;SDS011;7689;53.612;-2.416;2022-09-03T01:57:26;18.63;;;16.80;;
15177;SDS011;7689;53.612;-2.416;2022-09-03T02:00:06;21.33;;;16.98;;
15177;SDS011;7689;53.612;-2.416;2022-09-03T02:02:41;21.67;;;18.05;;
15177;SDS011;7689;53.612;-2.416;2022-09-03T02:05:13;19.88;;;17.58;;
15177;SDS011;7689;53.612;-2.416;2022-09-03T02:07:46;19.23;;;17.17;;
15177;SDS011;7689;53.612;-2.416;2022-09-03T02:10:14;22.20;;;16.48;;
15177;SDS011;7689;53.612;-2.416;2022-09-03T02:12:45;19.60;;;17.23;;
15177;SDS011;7689;53.612;-2.416;2022-09-03T02:15:15;17.65;;;15.95;;
15177;SDS011;7689;53.612;-2.416;2022-09-03T02:17:43;17.67;;;15.88;;
15177;SDS011;7689;53.612;-2.416;2022-09-03T02:20:11;18.48;;;16.48;;
15177;SDS011;7689;53.612;-2.416;2022-09-03T02:22:43;19.90;;;17.90;;
15177;SDS011;7689;53.612;-2.416;2022-09-03T02:25:09;22.08;;;17.30;;
15177;SDS011;7689;53.612;-2.416;2022-09-03T02:27:36;20.48;;;17.30;;
15177;SDS011;7689;53.612;-2.416;2022-09-03T02:30:05;18.38;;;16.58;;
15177;SDS011;7689;53.612;-2.416;2022-09-03T02:32:31;18.80;;;16.90;;
15177;SDS011;7689;53.612;-2.416;2022-09-03T02:34:57;18.52;;;16.58;;
15177;SDS011;7689;53.612;-2.416;2022-09-03T02:37:23;18.45;;;16.60;;
15177;SDS011;7689;53.612;-2.416;2022-09-03T02:39:49;21.17;;;16.08;;
15177;SDS011;7689;53.612;-2.416;2022-09-03T02:42:18;17.33;;;15.55;;
15177;SDS011;7689;53.612;-2.416;2022-09-03T02:44:51;21.48;;;16.23;;
15177;SDS011;7689;53.612;-2.416;2022-09-03T02:47:21;16.75;;;15.15;;
15177;SDS011;7689;53.612;-2.416;2022-09-03T02:49:52;21.58;;;16.00;;
15177;SDS011;7689;53.612;-2.416;2022-09-03T02:52:18;18.05;;;16.35;;
15177;SDS011;7689;53.612;-2.416;2022-09-03T02:54:44;17.73;;;15.80;;
15177;SDS011;7689;53.612;-2.416;2022-09-03T02:57:11;17.65;;;15.65;;
15177;SDS011;7689;53.612;-2.416;2022-09-03T02:59:39;18.05;;;15.32;;
15177;SDS011;7689;53.612;-2.416;2022-09-03T03:02:06;16.40;;;14.93;;
15177;SDS011;7689;53.612;-2.416;2022-09-03T03:04:32;16.90;;;15.38;;
15177;SDS011;7689;53.612;-2.416;2022-09-03T03:06:57;19.63;;;15.55;;
15177;SDS011;7689;53.612;-2.416;2022-09-03T03:09:23;17.15;;;15.27;;
15177;SDS011;7689;53.612;-2.416;2022-09-03T03:11:49;16.73;;;15.05;;
15177;SDS011;7689;53.612;-2.416;2022-09-03T03:14:15;16.15;;;14.55;;
15177;SDS011;7689;53.612;-2.416;2022-09-03T03:16:42;16.38;;;14.65;;
15177;SDS011;7689;53.612;-2.416;2022-09-03T03:19:08;19.05;;;16.05;;
15177;SDS011;7689;53.612;-2.416;2022-09-03T03:21:34;18.38;;;15.57;;
15177;SDS011;7689;53.612;-2.416;2022-09-03T03:24:00;22.52;;;17.02;;
15177;SDS011;7689;53.612;-2.416;2022-09-03T03:26:27;17.70;;;15.85;;
15177;SDS011;7689;53.612;-2.416;2022-09-03T03:28:56;19.00;;;17.10;;
15177;SDS011;7689;53.612;-2.416;2022-09-03T03:31:24;20.45;;;15.65;;
15177;SDS011;7689;53.612;-2.416;2022-09-03T03:33:52;19.20;;;17.27;;
15177;SDS011;7689;53.612;-2.416;2022-09-03T03:36:19;24.52;;;17.60;;
15177;SDS011;7689;53.612;-2.416;2022-09-03T03:38:46;20.77;;;17.83;;
15177;SDS011;7689;53.612;-2.416;2022-09-03T03:41:14;21.25;;;19.00;;
15177;SDS011;7689;53.612;-2.416;2022-09-03T03:43:45;23.33;;;19.63;;
15177;SDS011;7689;53.612;-2.416;2022-09-03T03:46:11;19.65;;;17.67;;
15177;SDS011;7689;53.612;-2.416;2022-09-03T03:48:38;21.52;;;19.27;;
15177;SDS011;7689;53.612;-2.416;2022-09-03T03:51:06;22.80;;;20.50;;
15177;SDS011;7689;53.612;-2.416;2022-09-03T03:53:34;23.15;;;20.60;;
15177;SDS011;7689;53.612;-2.416;2022-09-03T03:56:02;24.65;;;21.23;;
15177;SDS011;7689;53.612;-2.416;2022-09-03T03:58:29;24.80;;;21.05;;
15177;SDS011;7689;53.612;-2.416;2022-09-03T04:01:03;29.50;;;20.98;;
15177;SDS011;7689;53.612;-2.416;2022-09-03T04:03:30;24.40;;;22.05;;
15177;SDS011;7689;53.612;-2.416;2022-09-03T04:05:56;23.50;;;21.00;;
15177;SDS011;7689;53.612;-2.416;2022-09-03T04:08:23;24.67;;;22.00;;
15177;SDS011;7689;53.612;-2.416;2022-09-03T04:10:49;24.48;;;22.00;;
15177;SDS011;7689;53.612;-2.416;2022-09-03T04:13:15;24.58;;;22.00;;
15177;SDS011;7689;53.612;-2.416;2022-09-03T04:15:41;29.35;;;22.33;;
15177;SDS011;7689;53.612;-2.416;2022-09-03T04:18:07;30.65;;;23.42;;
15177;SDS011;7689;53.612;-2.416;2022-09-03T04:20:34;28.23;;;23.10;;
15177;SDS011;7689;53.612;-2.416;2022-09-03T04:23:00;26.33;;;23.55;;
15177;SDS011;7689;53.612;-2.416;2022-09-03T04:25:27;28.35;;;24.27;;
15177;SDS011;7689;53.612;-2.416;2022-09-03T04:27:53;29.10;;;24.55;;
15177;SDS011;7689;53.612;-2.416;2022-09-03T04:30:19;30.92;;;22.33;;
15177;SDS011;7689;53.612;-2.416;2022-09-03T04:32:45;28.00;;;23.27;;
15177;SDS011;7689;53.612;-2.416;2022-09-03T04:35:24;24.60;;;20.98;;
15177;SDS011;7689;53.612;-2.416;2022-09-03T04:37:51;27.90;;;23.52;;
15177;SDS011;7689;53.612;-2.416;2022-09-03T04:40:19;25.88;;;22.45;;
15177;SDS011;7689;53.612;-2.416;2022-09-03T04:42:45;26.60;;;21.98;;
15177;SDS011;7689;53.612;-2.416;2022-09-03T04:45:13;26.73;;;22.65;;
15177;SDS011;7689;53.612;-2.416;2022-09-03T04:47:42;27.15;;;22.20;;
15177;SDS011;7689;53.612;-2.416;2022-09-03T04:50:10;30.00;;;24.17;;
15177;SDS011;7689;53.612;-2.416;2022-09-03T04:52:37;26.90;;;22.67;;
15177;SDS011;7689;53.612;-2.416;2022-09-03T04:55:03;26.92;;;23.20;;
15177;SDS011;7689;53.612;-2.416;2022-09-03T04:57:29;30.38;;;24.00;;
15177;SDS011;7689;53.612;-2.416;2022-09-03T04:59:59;26.65;;;22.35;;
15177;SDS011;7689;53.612;-2.416;2022-09-03T05:02:25;28.67;;;21.48;;
15177;SDS011;7689;53.612;-2.416;2022-09-03T05:04:50;26.98;;;23.08;;
15177;SDS011;7689;53.612;-2.416;2022-09-03T05:07:17;27.60;;;23.20;;
15177;SDS011;7689;53.612;-2.416;2022-09-03T05:09:44;29.30;;;24.42;;
15177;SDS011;7689;53.612;-2.416;2022-09-03T05:12:09;28.73;;;24.88;;
15177;SDS011;7689;53.612;-2.416;2022-09-03T05:14:35;28.05;;;23.45;;
15177;SDS011;7689;53.612;-2.416;2022-09-03T05:17:01;28.83;;;23.65;;
15177;SDS011;7689;53.612;-2.416;2022-09-03T05:19:27;28.40;;;23.45;;
15177;SDS011;7689;53.612;-2.416;2022-09-03T05:21:52;29.70;;;23.10;;
15177;SDS011;7689;53.612;-2.416;2022-09-03T05:24:18;27.95;;;23.83;;
15177;SDS011;7689;53.612;-2.416;2022-09-03T05:26:43;27.92;;;23.42;;
15177;SDS011;7689;53.612;-2.416;2022-09-03T05:29:09;30.60;;;23.92;;
15177;SDS011;7689;53.612;-2.416;2022-09-03T05:31:36;27.33;;;23.42;;
15177;SDS011;7689;53.612;-2.416;2022-09-03T05:34:03;31.00;;;22.45;;
15177;SDS011;7689;53.612;-2.416;2022-09-03T05:36:30;26.02;;;22.73;;
15177;SDS011;7689;53.612;-2.416;2022-09-03T05:38:58;32.63;;;24.20;;
15177;SDS011;7689;53.612;-2.416;2022-09-03T05:41:25;27.42;;;23.10;;
15177;SDS011;7689;53.612;-2.416;2022-09-03T05:43:52;26.35;;;22.83;;
15177;SDS011;7689;53.612;-2.416;2022-09-03T05:46:28;24.65;;;21.17;;
15177;SDS011;7689;53.612;-2.416;2022-09-03T05:48:56;28.20;;;22.80;;
15177;SDS011;7689;53.612;-2.416;2022-09-03T05:51:24;24.15;;;20.35;;
15177;SDS011;7689;53.612;-2.416;2022-09-03T05:53:50;26.92;;;22.40;;
15177;SDS011;7689;53.612;-2.416;2022-09-03T05:56:18;26.52;;;22.05;;
15177;SDS011;7689;53.612;-2.416;2022-09-03T05:58:46;25.25;;;22.20;;
15177;SDS011;7689;53.612;-2.416;2022-09-03T06:03:49;30.38;;;22.20;;
15177;SDS011;7689;53.612;-2.416;2022-09-03T06:06:25;28.98;;;22.48;;
15177;SDS011;7689;53.612;-2.416;2022-09-03T06:08:55;29.63;;;23.02;;
15177;SDS011;7689;53.612;-2.416;2022-09-03T06:11:23;27.73;;;21.30;;
15177;SDS011;7689;53.612;-2.416;2022-09-03T06:13:52;27.30;;;22.85;;
15177;SDS011;7689;53.612;-2.416;2022-09-03T06:16:19;30.02;;;22.67;;
15177;SDS011;7689;53.612;-2.416;2022-09-03T06:18:46;27.58;;;22.45;;
15177;SDS011;7689;53.612;-2.416;2022-09-03T06:21:11;28.48;;;23.17;;
15177;SDS011;7689;53.612;-2.416;2022-09-03T06:23:39;28.92;;;23.52;;
15177;SDS011;7689;53.612;-2.416;2022-09-03T06:26:09;30.80;;;23.95;;
15177;SDS011;7689;53.612;-2.416;2022-09-03T06:28:36;32.08;;;25.33;;
15177;SDS011;7689;53.612;-2.416;2022-09-03T06:31:07;29.75;;;24.27;;
15177;SDS011;7689;53.612;-2.416;2022-09-03T06:33:35;31.70;;;25.75;;
15177;SDS011;7689;53.612;-2.416;2022-09-03T06:36:03;31.67;;;24.65;;
15177;SDS011;7689;53.612;-2.416;2022-09-03T06:38:30;37.38;;;26.73;;
15177;SDS011;7689;53.612;-2.416;2022-09-03T06:41:00;32.63;;;26.88;;
15177;SDS011;7689;53.612;-2.416;2022-09-03T06:43:28;35.85;;;27.35;;
15177;SDS011;7689;53.612;-2.416;2022-09-03T06:45:56;36.20;;;26.95;;
15177;SDS011;7689;53.612;-2.416;2022-09-03T06:48:23;33.30;;;27.75;;
15177;SDS011;7689;53.612;-2.416;2022-09-03T06:50:53;33.60;;;28.08;;
15177;SDS011;7689;53.612;-2.416;2022-09-03T06:53:19;37.45;;;26.88;;
15177;SDS011;7689;53.612;-2.416;2022-09-03T06:55:54;36.22;;;28.50;;
15177;SDS011;7689;53.612;-2.416;2022-09-03T06:58:27;34.42;;;28.08;;
15177;SDS011;7689;53.612;-2.416;2022-09-03T07:00:59;35.60;;;27.60;;
15177;SDS011;7689;53.612;-2.416;2022-09-03T07:03:26;33.42;;;26.50;;
15177;SDS011;7689;53.612;-2.416;2022-09-03T07:05:52;32.80;;;26.20;;
15177;SDS011;7689;53.612;-2.416;2022-09-03T07:08:17;29.75;;;25.50;;
15177;SDS011;7689;53.612;-2.416;2022-09-03T07:10:46;30.88;;;26.45;;
15177;SDS011;7689;53.612;-2.416;2022-09-03T07:13:12;29.30;;;24.90;;
15177;SDS011;7689;53.612;-2.416;2022-09-03T07:15:38;33.53;;;25.42;;
15177;SDS011;7689;53.612;-2.416;2022-09-03T07:18:05;31.98;;;25.25;;
15177;SDS011;7689;53.612;-2.416;2022-09-03T07:20:30;33.13;;;25.40;;
15177;SDS011;7689;53.612;-2.416;2022-09-03T07:22:56;27.20;;;23.77;;
15177;SDS011;7689;53.612;-2.416;2022-09-03T07:25:23;30.42;;;24.70;;
15177;SDS011;7689;53.612;-2.416;2022-09-03T07:27:50;29.25;;;24.15;;
15177;SDS011;7689;53.612;-2.416;2022-09-03T07:30:16;31.08;;;24.30;;
15177;SDS011;7689;53.612;-2.416;2022-09-03T07:32:43;30.50;;;25.00;;
15177;SDS011;7689;53.612;-2.416;2022-09-03T07:35:15;24.73;;;22.00;;
15177;SDS011;7689;53.612;-2.416;2022-09-03T07:37:42;30.67;;;23.00;;
15177;SDS011;7689;53.612;-2.416;2022-09-03T07:40:08;28.08;;;23.17;;
15177;SDS011;7689;53.612;-2.416;2022-09-03T07:42:35;27.35;;;23.45;;
15177;SDS011;7689;53.612;-2.416;2022-09-03T07:45:03;31.08;;;23.85;;
15177;SDS011;7689;53.612;-2.416;2022-09-03T07:47:34;30.98;;;24.55;;
15177;SDS011;7689;53.612;-2.416;2022-09-03T07:50:00;29.70;;;24.38;;
15177;SDS011;7689;53.612;-2.416;2022-09-03T07:52:25;27.77;;;22.85;;
15177;SDS011;7689;53.612;-2.416;2022-09-03T07:54:51;27.85;;;21.88;;
15177;SDS011;7689;53.612;-2.416;2022-09-03T07:57:17;26.52;;;22.50;;
15177;SDS011;7689;53.612;-2.416;2022-09-03T07:59:43;27.20;;;22.77;;
15177;SDS011;7689;53.612;-2.416;2022-09-03T08:02:08;32.38;;;21.50;;
15177;SDS011;7689;53.612;-2.416;2022-09-03T08:04:34;29.50;;;22.75;;
15177;SDS011;7689;53.612;-2.416;2022-09-03T08:07:00;25.92;;;22.75;;
15177;SDS011;7689;53.612;-2.416;2022-09-03T08:09:25;27.35;;;22.67;;
15177;SDS011;7689;53.612;-2.416;2022-09-03T08:11:51;24.40;;;21.77;;
15177;SDS011;7689;53.612;-2.416;2022-09-03T08:14:17;29.20;;;21.85;;
15177;SDS011;7689;53.612;-2.416;2022-09-03T08:16:43;25.50;;;21.83;;
15177;SDS011;7689;53.612;-2.416;2022-09-03T08:19:13;25.80;;;22.30;;
15177;SDS011;7689;53.612;-2.416;2022-09-03T08:21:40;28.63;;;22.55;;
15177;SDS011;7689;53.612;-2.416;2022-09-03T08:24:06;24.85;;;20.92;;
15177;SDS011;7689;53.612;-2.416;2022-09-03T08:26:33;27.20;;;22.13;;
15177;SDS011;7689;53.612;-2.416;2022-09-03T08:29:02;30.75;;;23.42;;
15177;SDS011;7689;53.612;-2.416;2022-09-03T08:31:28;26.83;;;22.65;;
15177;SDS011;7689;53.612;-2.416;2022-09-03T08:33:56;28.05;;;22.20;;
15177;SDS011;7689;53.612;-2.416;2022-09-03T08:36:27;29.75;;;25.13;;
15177;SDS011;7689;53.612;-2.416;2022-09-03T08:38:54;31.38;;;24.40;;
15177;SDS011;7689;53.612;-2.416;2022-09-03T08:42:24;30.35;;;23.27;;
15177;SDS011;7689;53.612;-2.416;2022-09-03T08:44:45;34.50;;;25.95;;
15177;SDS011;7689;53.612;-2.416;2022-09-03T08:49:55;32.88;;;25.45;;
15177;SDS011;7689;53.612;-2.416;2022-09-03T08:52:27;27.02;;;24.13;;
15177;SDS011;7689;53.612;-2.416;2022-09-03T08:57:42;33.97;;;25.38;;
15177;SDS011;7689;53.612;-2.416;2022-09-03T09:00:14;30.77;;;26.00;;
15177;SDS011;7689;53.612;-2.416;2022-09-03T09:05:46;30.52;;;23.63;;
15177;SDS011;7689;53.612;-2.416;2022-09-03T09:08:37;27.10;;;22.48;;
15177;SDS011;7689;53.612;-2.416;2022-09-03T09:19:26;23.60;;;20.85;;
15177;SDS011;7689;53.612;-2.416;2022-09-03T09:21:55;24.38;;;20.60;;
15177;SDS011;7689;53.612;-2.416;2022-09-03T09:24:27;27.38;;;22.55;;
15177;SDS011;7689;53.612;-2.416;2022-09-03T09:27:03;23.77;;;21.27;;
15177;SDS011;7689;53.612;-2.416;2022-09-03T09:29:31;26.92;;;22.15;;
15177;SDS011;7689;53.612;-2.416;2022-09-03T09:31:59;23.85;;;21.30;;
15177;SDS011;7689;53.612;-2.416;2022-09-03T09:34:25;24.00;;;20.88;;
15177;SDS011;7689;53.612;-2.416;2022-09-03T09:36:52;25.55;;;20.27;;
15177;SDS011;7689;53.612;-2.416;2022-09-03T09:39:20;23.80;;;21.08;;
15177;SDS011;7689;53.612;-2.416;2022-09-03T09:41:59;21.88;;;19.58;;
15177;SDS011;7689;53.612;-2.416;2022-09-03T09:44:32;23.02;;;20.38;;
15177;SDS011;7689;53.612;-2.416;2022-09-03T09:47:05;23.60;;;21.02;;
15177;SDS011;7689;53.612;-2.416;2022-09-03T09:52:14;22.27;;;19.33;;
15177;SDS011;7689;53.612;-2.416;2022-09-03T09:54:41;23.15;;;18.80;;
15177;SDS011;7689;53.612;-2.416;2022-09-03T09:57:14;20.48;;;18.20;;
15177;SDS011;7689;53.612;-2.416;2022-09-03T09:59:44;20.58;;;17.98;;
15177;SDS011;7689;53.612;-2.416;2022-09-03T10:04:38;20.83;;;18.30;;
15177;SDS011;7689;53.612;-2.416;2022-09-03T10:07:24;19.90;;;17.73;;
15177;SDS011;7689;53.612;-2.416;2022-09-03T10:13:12;19.13;;;17.08;;
15177;SDS011;7689;53.612;-2.416;2022-09-03T10:15:58;22.55;;;18.55;;
15177;SDS011;7689;53.612;-2.416;2022-09-03T10:23:50;19.85;;;15.30;;
15177;SDS011;7689;53.612;-2.416;2022-09-03T10:26:24;19.50;;;17.45;;
15177;SDS011;7689;53.612;-2.416;2022-09-03T10:28:58;20.85;;;17.02;;
15177;SDS011;7689;53.612;-2.416;2022-09-03T10:42:27;19.23;;;17.15;;
15177;SDS011;7689;53.612;-2.416;2022-09-03T10:56:00;24.98;;;15.60;;
15177;SDS011;7689;53.612;-2.416;2022-09-03T11:07:06;19.52;;;15.68;;
15177;SDS011;7689;53.612;-2.416;2022-09-03T11:09:45;18.23;;;16.42;;
15177;SDS011;7689;53.612;-2.416;2022-09-03T11:12:23;17.90;;;16.08;;
15177;SDS011;7689;53.612;-2.416;2022-09-03T11:15:05;18.25;;;16.45;;
15177;SDS011;7689;53.612;-2.416;2022-09-03T11:17:57;20.77;;;16.05;;
15177;SDS011;7689;53.612;-2.416;2022-09-03T11:20:26;17.75;;;15.88;;
15177;SDS011;7689;53.612;-2.416;2022-09-03T11:22:56;17.75;;;15.38;;
15177;SDS011;7689;53.612;-2.416;2022-09-03T11:25:33;17.25;;;13.73;;
15177;SDS011;7689;53.612;-2.416;2022-09-03T11:31:24;17.45;;;14.32;;
15177;SDS011;7689;53.612;-2.416;2022-09-03T11:34:06;14.05;;;12.65;;
15177;SDS011;7689;53.612;-2.416;2022-09-03T11:37:06;13.13;;;11.82;;
15177;SDS011;7689;53.612;-2.416;2022-09-03T11:39:53;13.00;;;11.70;;
15177;SDS011;7689;53.612;-2.416;2022-09-03T11:42:35;12.60;;;11.18;;
15177;SDS011;7689;53.612;-2.416;2022-09-03T11:45:20;14.52;;;11.32;;
15177;SDS011;7689;53.612;-2.416;2022-09-03T11:47:53;15.35;;;11.75;;
15177;SDS011;7689;53.612;-2.416;2022-09-03T11:52:52;12.23;;;10.98;;
15177;SDS011;7689;53.612;-2.416;2022-09-03T11:55:52;12.43;;;10.88;;
15177;SDS011;7689;53.612;-2.416;2022-09-03T11:58:31;15.38;;;11.52;;
15177;SDS011;7689;53.612;-2.416;2022-09-03T12:01:00;10.65;;;9.75;;
15177;SDS011;7689;53.612;-2.416;2022-09-03T12:03:28;9.70;;;8.77;;
15177;SDS011;7689;53.612;-2.416;2022-09-03T12:22:16;9.25;;;7.10;;
15177;SDS011;7689;53.612;-2.416;2022-09-03T12:24:43;7.60;;;6.28;;
15177;SDS011;7689;53.612;-2.416;2022-09-03T12:27:17;10.38;;;6.78;;
15177;SDS011;7689;53.612;-2.416;2022-09-03T12:29:51;8.55;;;6.13;;
15177;SDS011;7689;53.612;-2.416;2022-09-03T12:32:23;7.88;;;6.40;;
15177;SDS011;7689;53.612;-2.416;2022-09-03T12:35:13;6.63;;;6.13;;
15177;SDS011;7689;53.612;-2.416;2022-09-03T12:37:50;7.75;;;6.95;;
15177;SDS011;7689;53.612;-2.416;2022-09-03T12:40:20;8.43;;;7.18;;
15177;SDS011;7689;53.612;-2.416;2022-09-03T12:42:47;10.88;;;7.53;;
15177;SDS011;7689;53.612;-2.416;2022-09-03T12:45:14;7.88;;;7.10;;
15177;SDS011;7689;53.612;-2.416;2022-09-03T12:47:47;11.32;;;6.57;;
15177;SDS011;7689;53.612;-2.416;2022-09-03T12:52:50;5.85;;;5.30;;
15177;SDS011;7689;53.612;-2.416;2022-09-03T12:55:37;6.00;;;5.40;;
15177;SDS011;7689;53.612;-2.416;2022-09-03T13:00:39;6.07;;;5.60;;
15177;SDS011;7689;53.612;-2.416;2022-09-03T13:05:46;6.07;;;5.47;;
15177;SDS011;7689;53.612;-2.416;2022-09-03T13:08:22;5.40;;;4.90;;
15177;SDS011;7689;53.612;-2.416;2022-09-03T13:10:56;5.60;;;5.20;;
15177;SDS011;7689;53.612;-2.416;2022-09-03T13:13:33;5.47;;;5.05;;
15177;SDS011;7689;53.612;-2.416;2022-09-03T13:21:35;6.07;;;4.68;;
15177;SDS011;7689;53.612;-2.416;2022-09-03T13:34:49;4.70;;;4.35;;
15177;SDS011;7689;53.612;-2.416;2022-09-03T13:37:35;4.85;;;4.32;;
15177;SDS011;7689;53.612;-2.416;2022-09-03T13:40:54;5.18;;;4.78;;
15177;SDS011;7689;53.612;-2.416;2022-09-03T13:43:29;5.15;;;4.47;;
15177;SDS011;7689;53.612;-2.416;2022-09-03T13:46:19;4.53;;;4.10;;
15177;SDS011;7689;53.612;-2.416;2022-09-03T13:48:55;4.68;;;4.28;;
15177;SDS011;7689;53.612;-2.416;2022-09-03T13:51:55;4.32;;;4.03;;
15177;SDS011;7689;53.612;-2.416;2022-09-03T13:57:00;4.15;;;3.75;;
15177;SDS011;7689;53.612;-2.416;2022-09-03T13:59:35;4.75;;;3.63;;
15177;SDS011;7689;53.612;-2.416;2022-09-03T14:07:53;3.70;;;3.50;;
15177;SDS011;7689;53.612;-2.416;2022-09-03T14:10:26;4.32;;;4.00;;
15177;SDS011;7689;53.612;-2.416;2022-09-03T14:15:48;4.47;;;4.18;;
15177;SDS011;7689;53.612;-2.416;2022-09-03T14:26:58;4.28;;;3.90;;
15177;SDS011;7689;53.612;-2.416;2022-09-03T14:29:29;5.43;;;4.50;;
15177;SDS011;7689;53.612;-2.416;2022-09-03T14:32:14;5.00;;;4.60;;
15177;SDS011;7689;53.612;-2.416;2022-09-03T14:34:55;4.40;;;4.00;;
15177;SDS011;7689;53.612;-2.416;2022-09-03T14:37:43;8.38;;;4.85;;
15177;SDS011;7689;53.612;-2.416;2022-09-03T14:48:57;5.47;;;4.57;;
15177;SDS011;7689;53.612;-2.416;2022-09-03T15:00:51;4.43;;;3.95;;
15177;SDS011;7689;53.612;-2.416;2022-09-03T15:15:04;4.50;;;4.10;;
15177;SDS011;7689;53.612;-2.416;2022-09-03T15:17:55;4.18;;;3.83;;
15177;SDS011;7689;53.612;-2.416;2022-09-03T15:20:31;3.88;;;3.58;;
15177;SDS011;7689;53.612;-2.416;2022-09-03T15:36:37;6.63;;;3.45;;
15177;SDS011;7689;53.612;-2.416;2022-09-03T15:39:12;3.72;;;3.53;;
15177;SDS011;7689;53.612;-2.416;2022-09-03T15:44:35;4.07;;;3.55;;
15177;SDS011;7689;53.612;-2.416;2022-09-03T15:47:12;3.72;;;3.53;;
15177;SDS011;7689;53.612;-2.416;2022-09-03T15:49:58;3.72;;;3.40;;
15177;SDS011;7689;53.612;-2.416;2022-09-03T15:54:55;3.90;;;3.60;;
15177;SDS011;7689;53.612;-2.416;2022-09-03T15:57:27;3.90;;;3.60;;
15177;SDS011;7689;53.612;-2.416;2022-09-03T16:00:02;4.20;;;3.78;;
15177;SDS011;7689;53.612;-2.416;2022-09-03T16:02:31;3.90;;;3.70;;
15177;SDS011;7689;53.612;-2.416;2022-09-03T16:05:19;3.55;;;3.25;;
15177;SDS011;7689;53.612;-2.416;2022-09-03T16:22:25;4.07;;;3.67;;
15177;SDS011;7689;53.612;-2.416;2022-09-03T16:27:50;4.00;;;3.60;;
15177;SDS011;7689;53.612;-2.416;2022-09-03T16:33:27;3.88;;;3.60;;
15177;SDS011;7689;53.612;-2.416;2022-09-03T16:36:22;3.97;;;3.58;;
15177;SDS011;7689;53.612;-2.416;2022-09-03T16:48:08;4.28;;;3.95;;
15177;SDS011;7689;53.612;-2.416;2022-09-03T17:07:05;3.97;;;3.70;;
15177;SDS011;7689;53.612;-2.416;2022-09-03T17:10:02;4.43;;;4.13;;
15177;SDS011;7689;53.612;-2.416;2022-09-03T17:28:47;4.68;;;4.28;;
15177;SDS011;7689;53.612;-2.416;2022-09-03T17:34:33;4.68;;;4.38;;
15177;SDS011;7689;53.612;-2.416;2022-09-03T17:49:31;4.65;;;4.35;;
15177;SDS011;7689;53.612;-2.416;2022-09-03T17:52:10;6.07;;;4.55;;
15177;SDS011;7689;53.612;-2.416;2022-09-03T17:54:44;5.18;;;4.80;;
15177;SDS011;7689;53.612;-2.416;2022-09-03T17:57:18;4.57;;;4.18;;
15177;SDS011;7689;53.612;-2.416;2022-09-03T18:10:32;5.68;;;4.95;;
15177;SDS011;7689;53.612;-2.416;2022-09-03T18:15:54;5.70;;;5.00;;
15177;SDS011;7689;53.612;-2.416;2022-09-03T18:18:25;5.25;;;4.72;;
15177;SDS011;7689;53.612;-2.416;2022-09-03T18:20:52;5.05;;;4.68;;
15177;SDS011;7689;53.612;-2.416;2022-09-03T18:26:25;6.68;;;4.72;;
15177;SDS011;7689;53.612;-2.416;2022-09-03T18:29:15;6.18;;;4.60;;
15177;SDS011;7689;53.612;-2.416;2022-09-03T18:32:21;6.57;;;4.72;;
15177;SDS011;7689;53.612;-2.416;2022-09-03T18:35:06;5.65;;;5.00;;
15177;SDS011;7689;53.612;-2.416;2022-09-03T18:37:51;5.85;;;5.35;;
15177;SDS011;7689;53.612;-2.416;2022-09-03T18:40:38;6.22;;;5.60;;
15177;SDS011;7689;53.612;-2.416;2022-09-03T19:01:56;7.00;;;6.35;;
15177;SDS011;7689;53.612;-2.416;2022-09-03T19:05:45;6.90;;;6.30;;
15177;SDS011;7689;53.612;-2.416;2022-09-03T19:08:14;7.15;;;6.45;;
15177;SDS011;7689;53.612;-2.416;2022-09-03T19:14:06;7.60;;;6.82;;
15177;SDS011;7689;53.612;-2.416;2022-09-03T19:17:21;7.05;;;6.38;;
15177;SDS011;7689;53.612;-2.416;2022-09-03T19:20:25;6.85;;;6.22;;
15177;SDS011;7689;53.612;-2.416;2022-09-03T19:23:13;6.55;;;5.97;;
15177;SDS011;7689;53.612;-2.416;2022-09-03T19:25:59;7.80;;;7.10;;
15177;SDS011;7689;53.612;-2.416;2022-09-03T19:29:06;7.43;;;6.72;;
15177;SDS011;7689;53.612;-2.416;2022-09-03T19:32:12;7.50;;;6.90;;
15177;SDS011;7689;53.612;-2.416;2022-09-03T19:35:15;7.70;;;7.00;;
15177;SDS011;7689;53.612;-2.416;2022-09-03T19:46:50;12.23;;;7.50;;
15177;SDS011;7689;53.612;-2.416;2022-09-03T19:52:52;8.57;;;7.72;;
15177;SDS011;7689;53.612;-2.416;2022-09-03T19:55:44;7.85;;;7.15;;
15177;SDS011;7689;53.612;-2.416;2022-09-03T19:58:37;7.93;;;7.32;;
15177;SDS011;7689;53.612;-2.416;2022-09-03T20:01:33;8.07;;;7.47;;
15177;SDS011;7689;53.612;-2.416;2022-09-03T20:04:20;8.23;;;7.25;;
15177;SDS011;7689;53.612;-2.416;2022-09-03T20:07:13;9.55;;;7.70;;
15177;SDS011;7689;53.612;-2.416;2022-09-03T20:09:59;9.23;;;8.20;;
15177;SDS011;7689;53.612;-2.416;2022-09-03T20:15:41;7.90;;;7.13;;
15177;SDS011;7689;53.612;-2.416;2022-09-03T20:18:27;8.10;;;6.78;;
15177;SDS011;7689;53.612;-2.416;2022-09-03T20:23:51;6.43;;;5.78;;
15177;SDS011;7689;53.612;-2.416;2022-09-03T20:26:54;7.22;;;6.43;;
15177;SDS011;7689;53.612;-2.416;2022-09-03T20:46:23;10.25;;;5.60;;
15177;SDS011;7689;53.612;-2.416;2022-09-03T20:52:27;10.18;;;6.22;;
15177;SDS011;7689;53.612;-2.416;2022-09-03T20:54:42;5.88;;;5.38;;
15177;SDS011;7689;53.612;-2.416;2022-09-03T21:00:01;6.03;;;5.40;;
15177;SDS011;7689;53.612;-2.416;2022-09-03T21:02:52;7.35;;;5.45;;
15177;SDS011;7689;53.612;-2.416;2022-09-03T21:08:26;5.50;;;5.00;;
15177;SDS011;7689;53.612;-2.416;2022-09-03T21:11:21;5.45;;;4.95;;
15177;SDS011;7689;53.612;-2.416;2022-09-03T21:19:42;4.90;;;4.45;;
15177;SDS011;7689;53.612;-2.416;2022-09-03T21:22:16;4.78;;;4.30;;
15177;SDS011;7689;53.612;-2.416;2022-09-03T21:24:54;5.47;;;4.40;;
15177;SDS011;7689;53.612;-2.416;2022-09-03T21:27:35;4.25;;;3.90;;
15177;SDS011;7689;53.612;-2.416;2022-09-03T21:30:13;4.68;;;3.90;;
15177;SDS011;7689;53.612;-2.416;2022-09-03T21:32:51;4.82;;;3.78;;
15177;SDS011;7689;53.612;-2.416;2022-09-03T21:35:38;6.60;;;4.00;;
15177;SDS011;7689;53.612;-2.416;2022-09-03T21:40:46;6.93;;;4.28;;
15177;SDS011;7689;53.612;-2.416;2022-09-03T21:43:40;5.28;;;3.55;;
15177;SDS011;7689;53.612;-2.416;2022-09-03T21:49:05;5.18;;;4.00;;
15177;SDS011;7689;53.612;-2.416;2022-09-03T21:51:46;5.32;;;3.95;;
15177;SDS011;7689;53.612;-2.416;2022-09-03T21:54:27;5.93;;;3.47;;
15177;SDS011;7689;53.612;-2.416;2022-09-03T21:57:04;4.38;;;3.75;;
15177;SDS011;7689;53.612;-2.416;2022-09-03T22:02:32;5.95;;;3.50;;
15177;SDS011;7689;53.612;-2.416;2022-09-03T22:04:58;6.78;;;3.95;;
15177;SDS011;7689;53.612;-2.416;2022-09-03T22:10:25;4.47;;;3.97;;